Time;durP1;ratioP1;P1;durP2;ratioP2;P2;SDS_P1;SDS_P2;PMS_P1;PMS_P2;Temp;Humidity;BMP_temperature;BMP_pressure;BME280_temperature;BME280_humidity;BME280_pressure;Samples;Min_cycle;Max_cycle;Signal;HPM_P1;HPM_P2
2022/03/15 00:01:36;;;;;;;9.13;3.00;;;;;;;11.51;82.17;102145.22;7395968;19;20027;-78
2022/03/15 00:04:04;;;;;;;10.10;2.33;;;;;;;11.52;82.01;102144.25;7394146;19;20010;-79
2022/03/15 00:06:34;;;;;;;8.90;2.50;;;;;;;11.50;81.94;102138.25;7397005;19;20014;-79
2022/03/15 00:09:01;;;;;;;7.38;2.55;;;;;;;11.50;82.08;102132.16;7397029;19;20367;-79
2022/03/15 00:11:30;;;;;;;18.25;6.18;;;;;;;11.51;82.56;102128.56;7401602;19;20026;-79
2022/03/15 00:13:58;;;;;;;8.38;2.97;;;;;;;11.52;82.41;102124.97;7397295;19;20006;-79
2022/03/15 00:16:25;;;;;;;9.23;2.72;;;;;;;11.51;81.56;102120.66;7399928;19;20015;-78
2022/03/15 00:18:53;;;;;;;9.35;2.33;;;;;;;11.48;81.61;102121.72;7397982;19;20509;-78
2022/03/15 00:21:20;;;;;;;10.65;2.30;;;;;;;11.46;81.89;102121.03;7396606;19;20019;-80
2022/03/15 00:23:47;;;;;;;7.95;2.30;;;;;;;11.45;82.07;102124.63;7396492;19;20357;-79
2022/03/15 00:26:14;;;;;;;10.48;3.92;;;;;;;11.45;82.43;102124.63;7394771;19;20523;-78
2022/03/15 00:28:41;;;;;;;8.23;2.50;;;;;;;11.45;82.53;102129.06;7399597;19;20431;-80
2022/03/15 00:31:09;;;;;;;12.77;4.72;;;;;;;11.43;82.66;102128.34;7398705;19;20011;-79
2022/03/15 00:33:38;;;;;;;10.15;3.00;;;;;;;11.40;83.13;102128.59;7396193;19;20031;-79
2022/03/15 00:36:06;;;;;;;14.18;6.22;;;;;;;11.35;82.98;102125.50;7398808;19;20011;-79
2022/03/15 00:38:34;;;;;;;17.13;7.32;;;;;;;11.35;83.82;102131.63;7395567;19;20316;-78
2022/03/15 00:41:01;;;;;;;14.93;3.40;;;;;;;11.33;83.02;102130.06;7394536;19;20011;-80
2022/03/15 00:43:28;;;;;;;9.65;3.45;;;;;;;11.30;82.95;102122.41;7394819;19;20026;-77
2022/03/15 00:45:56;;;;;;;13.52;3.38;;;;;;;11.30;83.96;102128.53;7394565;19;20025;-78
2022/03/15 00:48:23;;;;;;;10.23;3.90;;;;;;;11.27;82.90;102118.25;7396060;19;20014;-78
2022/03/15 00:50:50;;;;;;;16.80;6.18;;;;;;;11.25;83.42;102121.94;7396168;19;20011;-78
2022/03/15 00:53:18;;;;;;;10.32;3.33;;;;;;;11.26;83.86;102110.47;7393087;19;20014;-78
2022/03/15 00:55:46;;;;;;;11.80;3.53;;;;;;;11.26;83.78;102115.72;7394126;19;20030;-77
2022/03/15 00:58:13;;;;;;;12.65;3.92;;;;;;;11.24;83.51;102112.38;7395908;19;20024;-78
2022/03/15 01:00:44;;;;;;;13.05;2.92;;;;;;;11.22;82.90;102125.69;7394771;19;20017;-78
2022/03/15 01:03:11;;;;;;;20.00;5.50;;;;;;;11.21;83.68;102123.16;7399398;19;20002;-78
2022/03/15 01:05:40;;;;;;;9.55;3.40;;;;;;;11.19;84.29;102127.72;7393436;19;20010;-78
2022/03/15 01:08:07;;;;;;;9.77;3.20;;;;;;;11.12;84.17;102122.94;7398108;19;20010;-79
2022/03/15 01:10:34;;;;;;;7.50;2.85;;;;;;;11.07;83.25;102122.47;7394210;19;20114;-79
2022/03/15 01:13:05;;;;;;;8.13;2.60;;;;;;;11.04;83.15;102114.00;7389277;19;20015;-78
2022/03/15 01:15:42;;;;;;;8.88;2.53;;;;;;;11.00;83.27;102120.47;7390778;19;20033;-78
2022/03/15 01:18:11;;;;;;;10.45;3.83;;;;;;;10.98;83.54;102112.69;7386261;19;20321;-78
2022/03/15 01:20:42;;;;;;;8.73;2.55;;;;;;;10.94;83.21;102106.00;7387313;19;20027;-78
2022/03/15 01:23:09;;;;;;;9.57;2.85;;;;;;;10.93;82.89;102095.56;7386535;19;20106;-79
2022/03/15 01:25:37;;;;;;;5.78;2.17;;;;;;;10.93;83.96;102091.16;7393724;19;20138;-78
2022/03/15 01:28:05;;;;;;;12.45;6.05;;;;;;;10.90;83.61;102095.84;7388406;19;20022;-79
2022/03/15 01:30:32;;;;;;;12.70;4.55;;;;;;;10.90;83.96;102091.41;7388537;19;20015;-78
2022/03/15 01:33:03;;;;;;;10.38;3.08;;;;;;;10.89;83.72;102088.88;7387058;19;20329;-77
2022/03/15 01:35:37;;;;;;;8.50;2.53;;;;;;;10.87;83.70;102083.75;7384178;19;20018;-78
2022/03/15 01:38:05;;;;;;;7.72;2.15;;;;;;;10.85;83.62;102069.88;7383415;19;20296;-80
2022/03/15 01:40:32;;;;;;;17.92;6.45;;;;;;;10.88;83.45;102085.41;7385853;19;20022;-79
2022/03/15 01:43:02;;;;;;;9.07;2.78;;;;;;;10.85;83.75;102072.50;7384483;19;20007;-79
2022/03/15 01:45:37;;;;;;;16.90;6.05;;;;;;;10.86;83.74;102068.94;7385004;19;20150;-79
2022/03/15 01:48:07;;;;;;;16.98;5.70;;;;;;;10.88;84.35;102072.25;7383082;19;20014;-78
2022/03/15 01:50:35;;;;;;;8.05;2.22;;;;;;;10.89;84.01;102068.66;7386045;19;20002;-77
2022/03/15 01:53:10;;;;;;;15.68;5.82;;;;;;;10.88;83.45;102056.44;7383826;19;20010;-78
2022/03/15 01:55:37;;;;;;;5.05;2.08;;;;;;;10.88;83.68;102053.81;7386491;19;20370;-77
2022/03/15 01:58:04;;;;;;;11.77;4.72;;;;;;;10.88;83.06;102047.72;7383798;19;20408;-78
2022/03/15 02:00:32;;;;;;;10.95;3.60;;;;;;;10.90;83.22;102043.19;7386211;19;20399;-78
2022/03/15 02:03:05;;;;;;;8.35;1.60;;;;;;;10.91;82.77;102044.84;7389283;19;20006;-78
2022/03/15 02:05:36;;;;;;;10.43;2.58;;;;;;;10.92;82.57;102039.44;7387233;19;20014;-79
2022/03/15 02:08:11;;;;;;;4.72;1.90;;;;;;;10.92;82.53;102030.72;7385589;19;20010;-78
2022/03/15 02:10:39;;;;;;;11.05;4.25;;;;;;;10.94;82.16;102032.25;7389834;19;20040;-79
2022/03/15 02:13:11;;;;;;;6.13;2.67;;;;;;;10.93;82.35;102020.06;7385038;19;20034;-78
2022/03/15 02:15:38;;;;;;;6.30;1.23;;;;;;;10.94;81.84;102020.88;7388654;19;20045;-78
2022/03/15 02:18:06;;;;;;;4.60;1.05;;;;;;;10.94;81.44;102020.88;7384152;19;20074;-80
2022/03/15 02:20:33;;;;;;;6.60;1.90;;;;;;;10.89;81.14;102010.75;7384359;19;20013;-79
2022/03/15 02:23:03;;;;;;;10.35;3.15;;;;;;;10.92;80.90;102017.56;7382620;19;20010;-79
2022/03/15 02:25:35;;;;;;;9.20;3.35;;;;;;;10.94;81.88;102007.72;7384607;19;20015;-79
2022/03/15 02:28:03;;;;;;;7.60;1.15;;;;;;;10.97;81.39;102012.75;7384200;19;20002;-79
2022/03/15 02:30:31;;;;;;;14.15;5.00;;;;;;;11.00;82.21;102004.59;7385694;19;20325;-79
2022/03/15 02:33:00;;;;;;;5.53;0.90;;;;;;;11.00;81.20;102001.97;7384748;19;20007;-79
2022/03/15 02:35:32;;;;;;;7.25;2.60;;;;;;;10.99;80.57;102005.56;7381815;19;20702;-79
2022/03/15 02:38:02;;;;;;;5.88;1.15;;;;;;;10.99;80.77;102003.75;7382452;19;20006;-79
2022/03/15 02:40:30;;;;;;;6.50;0.90;;;;;;;11.00;80.36;102001.97;7385057;19;20380;-78
2022/03/15 02:42:57;;;;;;;13.73;3.20;;;;;;;11.01;80.55;102004.47;7383479;19;20447;-79
2022/03/15 02:45:27;;;;;;;7.68;1.15;;;;;;;11.02;80.07;101992.16;7382151;19;20047;-79
2022/03/15 02:47:54;;;;;;;14.90;4.20;;;;;;;11.03;79.36;101993.78;7385692;19;20041;-79
2022/03/15 02:50:21;;;;;;;5.28;1.08;;;;;;;11.05;80.91;101989.25;7384745;19;20098;-78
2022/03/15 02:52:48;;;;;;;9.43;3.78;;;;;;;11.03;79.72;101986.72;7380815;19;20006;-79
2022/03/15 02:55:18;;;;;;;12.32;4.32;;;;;;;11.06;81.19;101978.59;7386011;19;20019;-78
2022/03/15 02:57:45;;;;;;;6.40;1.33;;;;;;;11.08;80.22;101984.56;7386145;19;20011;-78
2022/03/15 03:00:13;;;;;;;12.10;3.95;;;;;;;11.07;79.45;101980.25;7384296;19;20022;-78
2022/03/15 03:02:40;;;;;;;4.70;1.42;;;;;;;11.08;79.11;101970.53;7383100;19;20414;-78
2022/03/15 03:05:08;;;;;;;5.22;1.00;;;;;;;11.03;78.66;101968.28;7380861;19;20467;-78
2022/03/15 03:07:36;;;;;;;25.50;10.18;;;;;;;11.04;79.14;101969.13;7386158;19;20014;-79
2022/03/15 03:10:05;;;;;;;8.43;1.60;;;;;;;11.03;79.76;101957.75;7380763;19;20147;-79
2022/03/15 03:12:32;;;;;;;8.68;2.85;;;;;;;11.04;79.97;101956.81;7386065;19;20019;-79
2022/03/15 03:15:02;;;;;;;9.90;2.55;;;;;;;11.03;79.96;101954.28;7380597;19;20010;-79
2022/03/15 03:17:29;;;;;;;5.90;1.30;;;;;;;11.03;79.80;101957.75;7381021;19;20186;-79
2022/03/15 03:19:56;;;;;;;6.68;2.15;;;;;;;11.05;79.73;101952.38;7380548;19;20010;-79
2022/03/15 03:22:23;;;;;;;7.47;1.70;;;;;;;11.08;79.79;101947.69;7383606;19;20019;-78
2022/03/15 03:24:50;;;;;;;9.38;4.30;;;;;;;11.11;79.62;101939.53;7382674;19;20384;-78
2022/03/15 03:27:17;;;;;;;9.65;2.28;;;;;;;11.13;80.60;101931.47;7381360;19;20029;-78
2022/03/15 03:29:44;;;;;;;8.18;2.15;;;;;;;11.17;79.89;101932.09;7385303;19;20018;-79
2022/03/15 03:32:12;;;;;;;8.82;3.60;;;;;;;11.19;80.40;101938.88;7381105;19;20054;-78
2022/03/15 03:34:39;;;;;;;4.45;1.85;;;;;;;11.23;80.13;101935.00;7377763;19;20127;-78
2022/03/15 03:37:06;;;;;;;10.68;3.05;;;;;;;11.25;80.49;101933.09;7377619;19;20011;-78
2022/03/15 03:39:33;;;;;;;7.90;2.53;;;;;;;11.26;80.28;101929.50;7379278;19;20324;-79
2022/03/15 03:42:01;;;;;;;11.98;4.88;;;;;;;11.24;79.63;101933.22;7383685;19;20476;-79
2022/03/15 03:44:28;;;;;;;9.65;3.80;;;;;;;11.22;80.00;101930.75;7382806;19;20178;-77
2022/03/15 03:46:55;;;;;;;5.95;2.15;;;;;;;11.20;80.06;101926.53;7384411;19;20444;-78
2022/03/15 03:49:24;;;;;;;13.60;5.93;;;;;;;11.24;81.04;101925.31;7382737;19;20037;-78
2022/03/15 03:51:52;;;;;;;9.75;2.75;;;;;;;11.23;80.94;101916.56;7382334;19;20491;-77
2022/03/15 03:54:19;;;;;;;6.28;2.60;;;;;;;11.17;80.82;101917.13;7381204;19;20011;-78
2022/03/15 03:56:46;;;;;;;9.63;2.80;;;;;;;11.12;80.99;101922.75;7380660;19;20011;-78
2022/03/15 03:59:13;;;;;;;11.05;4.10;;;;;;;11.10;80.73;101913.31;7381351;19;20006;-79
2022/03/15 04:01:41;;;;;;;13.65;5.68;;;;;;;11.09;81.69;101915.13;7384702;19;20523;-78
2022/03/15 04:04:10;;;;;;;11.23;2.70;;;;;;;11.08;81.25;101917.88;7379398;19;20094;-78
2022/03/15 04:06:39;;;;;;;10.60;3.00;;;;;;;11.05;81.21;101913.72;7383009;19;20074;-79
2022/03/15 04:09:16;;;;;;;11.00;4.00;;;;;;;11.05;81.62;101918.97;7384196;19;20027;-78
2022/03/15 04:11:46;;;;;;;13.52;5.57;;;;;;;11.06;80.11;101909.28;7383888;19;20018;-79
2022/03/15 04:14:14;;;;;;;9.52;3.60;;;;;;;11.08;81.91;101908.16;7382366;19;20006;-79
2022/03/15 04:16:42;;;;;;;11.45;3.17;;;;;;;11.08;80.69;101909.97;7383747;19;20410;-78
2022/03/15 04:19:14;;;;;;;17.25;7.95;;;;;;;11.08;80.37;101907.34;7379776;19;20010;-80
2022/03/15 04:21:41;;;;;;;11.18;4.00;;;;;;;11.05;80.36;101911.06;7381212;19;20472;-78
2022/03/15 04:24:08;;;;;;;9.15;2.75;;;;;;;11.03;80.00;101897.19;7382310;19;20022;-78
2022/03/15 04:26:35;;;;;;;13.80;3.45;;;;;;;11.02;80.38;101899.97;7379079;19;20399;-78
2022/03/15 04:29:02;;;;;;;8.55;2.95;;;;;;;11.00;80.06;101897.47;7379492;19;20006;-78
2022/03/15 04:31:29;;;;;;;16.48;5.35;;;;;;;11.01;80.68;101898.28;7386232;19;20026;-78
2022/03/15 04:33:57;;;;;;;11.20;4.00;;;;;;;11.01;80.34;101896.50;7381531;19;20042;-78
2022/03/15 04:36:24;;;;;;;10.65;4.00;;;;;;;10.99;80.36;101887.03;7378185;19;20014;-79
2022/03/15 04:38:51;;;;;;;16.05;3.97;;;;;;;10.95;80.44;101890.91;7381666;19;20007;-78
2022/03/15 04:41:18;;;;;;;10.55;3.67;;;;;;;10.90;80.37;101901.81;7383379;19;20015;-80
2022/03/15 04:43:45;;;;;;;11.55;4.20;;;;;;;10.90;81.83;101891.31;7378923;19;20343;-78
2022/03/15 04:46:12;;;;;;;9.38;3.35;;;;;;;10.87;81.65;101878.38;7380934;19;20018;-78
2022/03/15 04:48:40;;;;;;;11.82;3.55;;;;;;;10.85;81.08;101884.75;7385614;19;20034;-78
2022/03/15 04:51:08;;;;;;;10.93;3.47;;;;;;;10.86;81.52;101882.00;7385878;19;20407;-78
2022/03/15 04:53:36;;;;;;;8.30;2.90;;;;;;;10.82;80.88;101877.13;7382355;19;20059;-78
2022/03/15 04:56:05;;;;;;;8.80;4.15;;;;;;;10.80;81.18;101871.97;7386247;19;20036;-78
2022/03/15 04:58:32;;;;;;;8.32;3.03;;;;;;;10.78;80.61;101870.41;7386644;19;20041;-78
2022/03/15 05:00:59;;;;;;;11.65;4.60;;;;;;;10.76;80.83;101865.28;7385618;19;20037;-78
2022/03/15 05:03:28;;;;;;;11.70;4.55;;;;;;;10.75;81.30;101876.78;7385103;19;20373;-79
2022/03/15 05:05:55;;;;;;;9.85;2.97;;;;;;;10.75;80.99;101863.63;7382956;19;20011;-78
2022/03/15 05:08:23;;;;;;;11.45;3.03;;;;;;;10.73;80.53;101876.91;7388684;19;20051;-77
2022/03/15 05:11:08;;;;;;;9.55;2.75;;;;;;;10.76;80.62;101872.34;7386981;19;20012;-78
2022/03/15 05:13:39;;;;;;;8.95;3.15;;;;;;;10.78;79.20;101871.25;7389458;19;20007;-78
2022/03/15 05:16:09;;;;;;;14.52;3.03;;;;;;;10.78;79.15;101873.88;7385925;19;20405;-78
2022/03/15 05:18:39;;;;;;;9.77;3.30;;;;;;;10.77;79.17;101866.13;7388557;19;20444;-79
2022/03/15 05:21:07;;;;;;;9.10;3.55;;;;;;;10.72;79.67;101867.31;7387808;19;20037;-79
2022/03/15 05:23:35;;;;;;;14.98;3.35;;;;;;;10.61;80.71;101864.78;7390832;19;20220;-78
2022/03/15 05:26:04;;;;;;;11.65;3.30;;;;;;;10.56;80.78;101859.06;7389346;19;20021;-79
2022/03/15 05:28:31;;;;;;;10.63;3.42;;;;;;;10.52;80.79;101860.25;7386880;19;20036;-78
2022/03/15 05:30:59;;;;;;;11.07;3.42;;;;;;;10.46;81.55;101865.22;7384891;19;20045;-78
2022/03/15 05:33:28;;;;;;;11.13;4.00;;;;;;;10.42;81.93;101861.13;7384503;19;20479;-78
2022/03/15 05:35:55;;;;;;;9.30;3.35;;;;;;;10.41;82.26;101868.22;7385758;19;20010;-78
2022/03/15 05:38:22;;;;;;;12.40;3.75;;;;;;;10.40;82.75;101869.19;7383767;19;20014;-78
2022/03/15 05:40:50;;;;;;;9.35;3.03;;;;;;;10.40;81.54;101866.53;7387716;19;20485;-78
2022/03/15 05:43:25;;;;;;;15.07;5.95;;;;;;;10.40;81.95;101858.66;7390440;19;20464;-78
2022/03/15 05:45:52;;;;;;;9.23;3.63;;;;;;;10.38;82.14;101870.25;7385987;19;20069;-78
2022/03/15 05:48:20;;;;;;;13.90;3.60;;;;;;;10.33;82.00;101862.75;7386092;19;20022;-78
2022/03/15 05:50:48;;;;;;;13.82;3.60;;;;;;;10.31;82.93;101854.13;7384163;19;20098;-78
2022/03/15 05:53:17;;;;;;;16.25;4.35;;;;;;;10.33;82.19;101859.25;7387077;19;20033;-79
2022/03/15 05:55:51;;;;;;;17.63;7.90;;;;;;;10.34;82.67;101855.69;7385721;19;20006;-78
2022/03/15 05:58:18;;;;;;;16.38;4.22;;;;;;;10.35;83.27;101868.72;7383862;19;20014;-78
2022/03/15 06:00:46;;;;;;;11.27;4.07;;;;;;;10.35;81.91;101863.47;7389748;19;20022;-80
2022/03/15 06:03:16;;;;;;;12.43;4.22;;;;;;;10.34;82.25;101867.03;7387490;19;20021;-78
2022/03/15 06:05:54;;;;;;;16.30;8.40;;;;;;;10.27;82.64;101873.75;7383371;19;20027;-79
2022/03/15 06:08:21;;;;;;;21.67;9.75;;;;;;;10.23;83.17;101877.59;7389197;19;20029;-78
2022/03/15 06:10:48;;;;;;;16.67;5.28;;;;;;;10.22;83.50;101879.38;7384643;19;20014;-78
2022/03/15 06:13:23;;;;;;;19.10;8.30;;;;;;;10.22;83.80;101882.03;7388360;19;20471;-78
2022/03/15 06:15:52;;;;;;;15.15;5.90;;;;;;;10.22;84.17;101884.66;7389078;19;20360;-79
2022/03/15 06:18:22;;;;;;;18.48;5.82;;;;;;;10.22;83.90;101878.53;7383973;19;20368;-79
2022/03/15 06:20:49;;;;;;;21.35;8.50;;;;;;;10.21;84.02;101876.88;7384466;19;20014;-78
2022/03/15 06:23:22;;;;;;;12.50;4.88;;;;;;;10.16;84.15;101882.50;7387737;19;20043;-78
2022/03/15 06:25:52;;;;;;;10.82;4.45;;;;;;;10.17;83.70;101885.97;7382915;19;20405;-79
2022/03/15 06:28:19;;;;;;;13.80;5.72;;;;;;;10.15;83.72;101883.47;7384423;19;20015;-79
2022/03/15 06:30:46;;;;;;;13.35;5.25;;;;;;;10.18;83.36;101885.84;7383539;19;20550;-78
2022/03/15 06:33:15;;;;;;;16.40;5.93;;;;;;;10.16;83.41;101892.19;7381050;19;20345;-78
2022/03/15 06:35:48;;;;;;;15.45;5.45;;;;;;;10.20;83.34;101888.38;7384426;19;20022;-79
2022/03/15 06:38:15;;;;;;;19.92;8.73;;;;;;;10.21;83.68;101885.59;7384730;19;20010;-78
2022/03/15 06:40:46;;;;;;;14.77;5.28;;;;;;;10.26;83.18;101883.44;7383974;19;20609;-78
2022/03/15 06:43:19;;;;;;;13.45;5.00;;;;;;;10.30;82.28;101894.56;7385758;19;20023;-78
2022/03/15 06:45:51;;;;;;;15.25;4.97;;;;;;;10.33;82.24;101893.47;7386154;19;20029;-78
2022/03/15 06:48:19;;;;;;;16.90;5.03;;;;;;;10.38;82.61;101896.56;7385743;19;20021;-79
2022/03/15 06:50:46;;;;;;;18.48;6.53;;;;;;;10.41;82.94;101894.53;7381980;19;20018;-79
2022/03/15 06:53:14;;;;;;;15.57;5.03;;;;;;;10.43;82.88;101886.50;7385771;19;20014;-80
2022/03/15 06:55:44;;;;;;;18.52;7.55;;;;;;;10.45;82.75;101893.31;7383405;19;20023;-77
2022/03/15 06:58:11;;;;;;;16.30;5.47;;;;;;;10.47;82.69;101883.47;7389732;19;20018;-78
2022/03/15 07:00:38;;;;;;;11.68;5.35;;;;;;;10.49;81.95;101888.63;7383423;19;20007;-79
2022/03/15 07:03:06;;;;;;;19.67;9.00;;;;;;;10.48;82.62;101890.41;7387873;19;20523;-80
2022/03/15 07:05:33;;;;;;;14.32;5.53;;;;;;;10.53;82.70;101888.25;7383765;19;20240;-78
2022/03/15 07:08:00;;;;;;;21.08;8.73;;;;;;;10.58;83.31;101882.59;7383851;19;20030;-80
2022/03/15 07:10:28;;;;;;;20.17;6.60;;;;;;;10.58;83.26;101870.28;7379988;19;20011;-78
2022/03/15 07:12:56;;;;;;;14.38;6.00;;;;;;;10.57;82.00;101879.13;7384777;19;20015;-79
2022/03/15 07:15:23;;;;;;;18.50;6.97;;;;;;;10.61;82.46;101883.19;7384313;19;20035;-79
2022/03/15 07:17:57;;;;;;;17.02;7.20;;;;;;;10.67;82.81;101879.19;7384898;19;20095;-79
2022/03/15 07:20:26;;;;;;;17.65;5.68;;;;;;;10.68;82.04;101884.34;7382779;19;20125;-80
2022/03/15 07:22:53;;;;;;;15.57;7.13;;;;;;;10.77;81.98;101874.84;7385691;19;20085;-78
2022/03/15 07:25:21;;;;;;;18.27;5.90;;;;;;;10.80;81.59;101874.59;7383163;19;20033;-79
2022/03/15 07:27:49;;;;;;;26.50;10.70;;;;;;;10.89;82.39;101880.88;7385103;19;20017;-78
2022/03/15 07:30:20;;;;;;;14.27;5.65;;;;;;;11.00;82.93;101875.56;7384074;19;20105;-79
2022/03/15 07:32:47;;;;;;;16.35;4.72;;;;;;;11.00;80.05;101868.50;7385408;19;20014;-79
2022/03/15 07:35:16;;;;;;;15.32;4.38;;;;;;;11.20;78.71;101874.69;7385386;19;20013;-78
2022/03/15 07:37:52;;;;;;;14.35;4.15;;;;;;;11.29;78.02;101883.59;7389089;19;20492;-79
2022/03/15 07:44:10;;;;;;;14.57;3.75;;;;;;;11.56;78.01;101865.44;7381483;19;20062;-79
2022/03/15 07:46:40;;;;;;;12.35;4.63;;;;;;;11.75;76.94;101864.69;7385569;19;20081;-79
2022/03/15 07:49:08;;;;;;;16.38;6.85;;;;;;;11.91;76.42;101859.72;7386176;19;20409;-78
2022/03/15 07:51:35;;;;;;;14.52;5.20;;;;;;;12.30;75.70;101864.06;7381225;19;20047;-79
2022/03/15 07:54:02;;;;;;;19.65;6.18;;;;;;;12.62;74.33;101860.31;7379726;19;20010;-79
2022/03/15 07:56:29;;;;;;;15.98;5.47;;;;;;;12.93;74.01;101853.88;7383385;19;20348;-79
2022/03/15 07:59:03;;;;;;;15.23;5.38;;;;;;;13.10;71.29;101845.22;7386382;19;20015;-78
2022/03/15 08:01:40;;;;;;;12.32;4.15;;;;;;;12.96;71.13;101842.19;7386586;19;20170;-80
2022/03/15 08:04:13;;;;;;;15.32;3.67;;;;;;;12.82;70.83;101843.47;7382090;19;20033;-81
2022/03/15 08:06:40;;;;;;;14.48;5.00;;;;;;;12.73;72.38;101846.97;7387963;19;20191;-79
2022/03/15 08:09:08;;;;;;;9.93;3.47;;;;;;;12.64;71.78;101846.03;7382980;19;20028;-80
2022/03/15 08:11:35;;;;;;;15.93;5.85;;;;;;;12.61;71.66;101838.38;7384615;19;20015;-79
2022/03/15 08:14:04;;;;;;;18.13;8.13;;;;;;;12.61;72.58;101837.53;7379949;19;20011;-81
2022/03/15 08:16:34;;;;;;;8.60;4.10;;;;;;;12.60;72.66;101846.41;7381699;19;20013;-81
2022/03/15 08:19:01;;;;;;;12.50;5.28;;;;;;;12.57;72.49;101834.34;7385644;19;20018;-79
2022/03/15 08:21:29;;;;;;;13.63;3.30;;;;;;;12.65;71.07;101842.38;7388424;19;20494;-80
2022/03/15 08:23:57;;;;;;;12.88;4.75;;;;;;;12.99;70.22;101837.47;7389913;19;20097;-81
2022/03/15 08:26:24;;;;;;;11.40;4.10;;;;;;;13.53;69.86;101834.06;7392269;19;20030;-78
2022/03/15 08:28:54;;;;;;;12.63;3.30;;;;;;;14.43;65.89;101843.78;7388982;19;20380;-80
2022/03/15 08:31:24;;;;;;;11.32;3.83;;;;;;;15.28;61.89;101843.88;7393388;19;20015;-80
2022/03/15 08:33:51;;;;;;;13.18;2.72;;;;;;;15.56;60.16;101844.53;7392389;19;20015;-79
2022/03/15 08:36:21;;;;;;;13.68;5.22;;;;;;;15.40;61.24;101844.41;7390721;19;20014;-79
2022/03/15 08:38:48;;;;;;;11.65;3.45;;;;;;;14.96;62.60;101843.69;7390466;19;20018;-80
2022/03/15 08:41:16;;;;;;;13.38;3.50;;;;;;;14.59;63.52;101853.69;7390065;19;20078;-78
2022/03/15 08:43:44;;;;;;;58.50;32.40;;;;;;;14.25;65.37;101840.28;7389977;19;20006;-79
2022/03/15 08:46:11;;;;;;;14.23;5.20;;;;;;;14.00;64.99;101847.16;7387136;19;20033;-79
2022/03/15 08:48:38;;;;;;;11.10;4.28;;;;;;;13.81;66.31;101842.84;7392723;19;20030;-79
2022/03/15 08:51:06;;;;;;;11.93;3.33;;;;;;;13.57;66.64;101837.25;7387069;19;20027;-79
2022/03/15 08:53:35;;;;;;;11.65;4.43;;;;;;;13.50;67.30;101830.91;7364937;19;20014;-79
2022/03/15 08:56:02;;;;;;;12.10;3.63;;;;;;;13.45;68.33;101820.75;7390695;19;20007;-80
2022/03/15 08:58:30;;;;;;;6.57;3.10;;;;;;;13.39;68.10;101820.50;7386103;19;20483;-78
2022/03/15 09:00:57;;;;;;;13.05;4.97;;;;;;;13.35;67.54;101811.22;7389861;19;20364;-79
2022/03/15 09:03:33;;;;;;;14.02;3.45;;;;;;;13.28;66.94;101797.75;7386961;19;20330;-80
2022/03/15 09:06:00;;;;;;;9.65;2.97;;;;;;;13.28;68.34;101789.81;7389038;19;20055;-79
2022/03/15 09:08:27;;;;;;;22.50;8.57;;;;;;;13.30;69.39;101776.47;7386889;19;20566;-78
2022/03/15 09:10:54;;;;;;;14.40;4.53;;;;;;;13.26;67.88;101774.09;7390885;19;20011;-79
2022/03/15 09:13:26;;;;;;;17.30;5.93;;;;;;;13.25;68.65;101769.81;7391360;19;20007;-78
2022/03/15 09:15:53;;;;;;;13.85;5.30;;;;;;;13.24;68.03;101762.84;7387435;19;20152;-78
2022/03/15 09:18:25;;;;;;;11.95;5.13;;;;;;;13.22;68.55;101759.50;7386768;19;20015;-80
2022/03/15 09:20:53;;;;;;;12.75;3.47;;;;;;;13.24;67.16;101754.09;7384194;19;20021;-78
2022/03/15 09:23:30;;;;;;;18.92;6.68;;;;;;;13.22;68.51;101754.22;7388034;19;20047;-80
2022/03/15 09:26:00;;;;;;;9.23;3.38;;;;;;;13.20;67.80;101745.63;7386737;19;20030;-79
2022/03/15 09:28:30;;;;;;;;;;;;;;;13.19;67.30;101743.97;7385814;19;20129;-79
2022/03/15 09:30:57;;;;;;;13.15;4.68;;;;;;;13.17;68.01;101745.91;7389288;19;19988;-79
2022/03/15 09:33:29;;;;;;;16.10;5.25;;;;;;;13.20;68.96;101742.97;7382840;19;20134;-79
2022/03/15 09:35:57;;;;;;;19.52;7.90;;;;;;;13.19;69.24;101741.31;7387152;19;20239;-79
2022/03/15 09:38:25;;;;;;;16.77;4.20;;;;;;;13.27;68.82;101746.69;7386133;19;20018;-78
2022/03/15 09:40:53;;;;;;;10.13;3.20;;;;;;;13.33;67.51;101741.78;7388124;19;20011;-79
2022/03/15 09:43:29;;;;;;;10.32;4.03;;;;;;;13.38;66.80;101753.59;7386417;19;20380;-79
2022/03/15 09:46:00;;;;;;;14.13;4.70;;;;;;;13.40;67.23;101749.00;7390117;19;20472;-79
2022/03/15 09:48:53;;;;;;;15.82;5.05;;;;;;;13.46;67.17;101761.59;7385217;19;20494;-79
2022/03/15 09:51:21;;;;;;;16.60;4.95;;;;;;;13.50;66.86;101757.69;7381487;19;20018;-80
2022/03/15 09:53:49;;;;;;;11.77;4.05;;;;;;;13.56;67.38;101756.28;7385901;19;20057;-79
2022/03/15 09:56:17;;;;;;;15.82;4.90;;;;;;;13.62;67.91;101756.50;7382402;19;20010;-79
2022/03/15 09:58:44;;;;;;;9.52;3.55;;;;;;;13.71;67.47;101755.56;7387328;19;20346;-80
2022/03/15 10:01:18;;;;;;;12.63;3.65;;;;;;;13.77;66.58;101750.66;7388233;19;20079;-79
2022/03/15 10:03:47;;;;;;;13.75;3.58;;;;;;;13.88;65.39;101758.38;7388924;19;20121;-78
2022/03/15 10:06:15;;;;;;;15.95;3.63;;;;;;;13.90;65.29;101762.56;7389876;19;20090;-79
2022/03/15 10:08:43;;;;;;;11.20;3.42;;;;;;;14.01;63.65;101756.22;7391575;19;20030;-81
2022/03/15 10:11:12;;;;;;;18.67;7.47;;;;;;;14.04;64.23;101761.19;7390401;19;20033;-79
2022/03/15 10:13:43;;;;;;;19.48;3.75;;;;;;;14.09;63.44;101750.97;7393129;19;20019;-81
2022/03/15 10:16:13;;;;;;;8.98;2.72;;;;;;;14.10;62.66;101750.00;7388654;19;20022;-79
2022/03/15 10:18:55;;;;;;;11.05;3.28;;;;;;;14.10;63.35;101750.00;7387423;19;20011;-80
2022/03/15 10:21:25;;;;;;;9.73;2.17;;;;;;;14.09;62.35;101741.22;7386193;19;20451;-78
2022/03/15 10:23:54;;;;;;;15.25;4.55;;;;;;;14.12;63.17;101737.44;7386617;19;20019;-79
2022/03/15 10:26:24;;;;;;;8.75;1.92;;;;;;;14.13;61.28;101744.38;7383752;19;20117;-79
2022/03/15 10:28:54;;;;;;;7.85;1.50;;;;;;;14.15;59.21;101739.78;7383524;19;20522;-81
2022/03/15 10:31:24;;;;;;;7.88;2.83;;;;;;;14.17;61.07;101747.59;7384994;19;20014;-80
2022/03/15 10:33:53;;;;;;;5.43;2.83;;;;;;;14.19;60.53;101745.59;7385808;19;20022;-78
2022/03/15 10:36:22;;;;;;;8.90;2.45;;;;;;;14.16;60.44;101743.25;7384452;19;20015;-80
2022/03/15 10:38:52;;;;;;;6.13;1.88;;;;;;;14.16;60.34;101738.81;7382917;19;20141;-79
2022/03/15 10:41:20;;;;;;;8.35;3.03;;;;;;;14.15;59.76;101737.13;7386650;19;20029;-80
2022/03/15 10:43:53;;;;;;;8.40;1.92;;;;;;;14.17;60.13;101739.63;7382660;19;20017;-80
2022/03/15 10:46:23;;;;;;;10.60;3.03;;;;;;;14.25;60.68;101731.75;7384540;19;20090;-81
2022/03/15 10:49:03;;;;;;;9.13;2.67;;;;;;;14.33;60.59;101723.84;7385895;19;20023;-79
2022/03/15 10:51:31;;;;;;;10.32;3.25;;;;;;;14.41;60.47;101710.72;7381579;19;20011;-80
2022/03/15 10:54:03;;;;;;;8.77;2.60;;;;;;;14.49;59.52;101719.53;7380404;19;20081;-79
2022/03/15 10:56:31;;;;;;;11.80;5.30;;;;;;;14.58;59.98;101698.41;7388584;19;20010;-80
2022/03/15 10:59:02;;;;;;;11.00;1.90;;;;;;;14.65;58.45;101702.06;7384998;19;20022;-80
2022/03/15 11:01:38;;;;;;;11.98;1.75;;;;;;;14.67;58.07;101702.75;7382413;19;20011;-81
2022/03/15 11:04:11;;;;;;;11.50;1.73;;;;;;;14.76;56.82;101704.47;7381960;19;20010;-79
2022/03/15 11:06:44;;;;;;;11.38;2.83;;;;;;;14.79;57.67;101704.13;7362601;19;20014;-80
2022/03/15 11:09:17;;;;;;;8.00;2.08;;;;;;;14.83;57.88;101701.00;7376589;19;20022;-81
2022/03/15 11:11:48;;;;;;;7.95;4.18;;;;;;;14.92;58.77;101707.19;7385934;19;20010;-80
2022/03/15 11:14:32;;;;;;;8.57;2.72;;;;;;;14.98;58.14;101707.34;7383871;19;20014;-79
2022/03/15 11:17:01;;;;;;;9.43;3.15;;;;;;;14.98;57.99;101712.66;7380502;19;20471;-80
2022/03/15 11:19:32;;;;;;;7.75;3.50;;;;;;;15.02;58.01;101701.75;7379969;19;20014;-78
2022/03/15 11:22:00;;;;;;;15.70;3.15;;;;;;;15.00;57.87;101699.25;7385623;19;20015;-79
2022/03/15 11:24:32;;;;;;;9.57;1.85;;;;;;;15.02;57.83;101699.94;7381412;19;20078;-79
2022/03/15 11:27:01;;;;;;;10.30;2.65;;;;;;;15.06;57.97;101692.50;7381010;19;20021;-79
2022/03/15 11:29:32;;;;;;;12.60;3.42;;;;;;;15.17;58.07;101694.84;7381280;19;20027;-79
2022/03/15 11:32:00;;;;;;;9.23;2.22;;;;;;;15.19;57.50;101701.63;7386310;19;20018;-80